createdAt,value
2023-04-14T00:01:50.363Z,98012.81
2023-04-14T00:04:17.500Z,98007.34
2023-04-14T00:06:44.699Z,98005.88
2023-04-14T00:09:11.520Z,98001.75
2023-04-14T00:11:38.530Z,98007.84
2023-04-14T00:14:05.910Z,97999.75
2023-04-14T00:16:33.204Z,97995.09
2023-04-14T00:19:00.333Z,97999.56
2023-04-14T00:21:27.503Z,97989.94
2023-04-14T00:23:56.568Z,97986.38
2023-04-14T00:26:23.592Z,97987.34
2023-04-14T00:28:50.534Z,97982.22
2023-04-14T00:31:17.579Z,97982.88
2023-04-14T00:33:44.557Z,97979.59
2023-04-14T00:36:11.719Z,97980.13
2023-04-14T00:38:38.730Z,97982.81
2023-04-14T00:41:05.540Z,97980.78
2023-04-14T00:43:32.372Z,97983.69
2023-04-14T00:45:59.641Z,97985.28
2023-04-14T00:48:37.105Z,97981.94
2023-04-14T00:51:04.665Z,97981.13
2023-04-14T00:53:32.785Z,97985.00
2023-04-14T00:56:01.090Z,97984.47
2023-04-14T00:58:28.310Z,97990.94
2023-04-14T01:00:58.174Z,97987.97
2023-04-14T01:03:26.364Z,97998.16
2023-04-14T01:05:53.719Z,97992.00
2023-04-14T01:08:21.920Z,97989.31
2023-04-14T01:11:17.000Z,97990.38
2023-04-14T01:13:55.992Z,97995.69
2023-04-14T01:16:38.321Z,97998.75
2023-04-14T01:19:24.747Z,98000.94
2023-04-14T01:22:05.737Z,98003.75
2023-04-14T01:25:24.108Z,98003.25
2023-04-14T01:28:34.722Z,98002.53
2023-04-14T01:31:31.254Z,98008.16
2023-04-14T01:34:09.695Z,98009.00
2023-04-14T01:36:52.288Z,98009.81
2023-04-14T01:39:25.167Z,98014.09
2023-04-14T01:41:56.230Z,98012.47
2023-04-14T01:44:25.840Z,98023.25
2023-04-14T01:47:02.252Z,98017.28
2023-04-14T01:49:33.195Z,98015.22
2023-04-14T01:52:04.092Z,98024.63
2023-04-14T01:54:34.576Z,98017.06
2023-04-14T01:57:05.342Z,98026.56
2023-04-14T01:59:36.563Z,98014.50
2023-04-14T02:02:07.776Z,98020.53
2023-04-14T02:04:37.522Z,98027.25
2023-04-14T02:07:07.648Z,98023.63
2023-04-14T02:09:36.477Z,98039.44
2023-04-14T02:12:06.692Z,98034.44
2023-04-14T02:14:36.099Z,98036.69
2023-04-14T02:17:04.392Z,98038.91
2023-04-14T02:19:32.459Z,98037.03
2023-04-14T02:22:00.934Z,98039.25
2023-04-14T02:24:27.838Z,98043.38
2023-04-14T02:27:03.521Z,98045.03
2023-04-14T02:29:35.263Z,98040.84
2023-04-14T02:32:07.163Z,98044.84
2023-04-14T02:34:42.546Z,98038.34
2023-04-14T02:37:18.315Z,98043.38
2023-04-14T02:39:53.407Z,98047.69
2023-04-14T02:42:26.920Z,98047.13
2023-04-14T02:45:05.238Z,98046.66
2023-04-14T02:47:45.386Z,98041.66
2023-04-14T02:50:18.143Z,98040.16
2023-04-14T02:52:51.326Z,98043.19
2023-04-14T02:55:21.656Z,98042.47
2023-04-14T02:57:50.438Z,98045.72
2023-04-14T03:00:18.370Z,98041.00
2023-04-14T03:02:47.482Z,98043.16
2023-04-14T03:05:15.139Z,98050.38
2023-04-14T03:07:44.563Z,98050.00
2023-04-14T03:10:12.811Z,98049.69
2023-04-14T03:12:42.149Z,98050.03
2023-04-14T03:15:10.808Z,98059.38
2023-04-14T03:17:38.810Z,98063.41
2023-04-14T03:20:07.261Z,98062.44
2023-04-14T03:22:40.650Z,98068.84
2023-04-14T03:25:09.104Z,98060.88
2023-04-14T03:27:37.943Z,98056.69
2023-04-14T03:30:10.003Z,98055.13
2023-04-14T03:32:42.385Z,98059.69
2023-04-14T03:35:12.500Z,98073.22
2023-04-14T03:37:46.199Z,98061.22
2023-04-14T03:40:15.478Z,98066.13
2023-04-14T03:42:45.942Z,98063.34
2023-04-14T03:45:12.848Z,98066.81
2023-04-14T03:47:39.997Z,98068.16
2023-04-14T03:50:11.357Z,98065.97
2023-04-14T03:52:41.374Z,98063.31
2023-04-14T03:55:12.560Z,98055.00
2023-04-14T03:57:42.002Z,98056.91
2023-04-14T04:00:11.086Z,98059.84
2023-04-14T04:02:40.221Z,98058.03
2023-04-14T04:05:10.040Z,98056.13
2023-04-14T04:07:39.625Z,98060.22
2023-04-14T04:10:08.168Z,98059.94
2023-04-14T04:12:38.748Z,98057.22
2023-04-14T04:15:06.929Z,98061.78
2023-04-14T04:17:35.854Z,98058.56
2023-04-14T04:20:09.932Z,98060.75
2023-04-14T04:22:41.294Z,98064.53
2023-04-14T04:25:11.598Z,98060.75
2023-04-14T04:27:38.424Z,98059.41
2023-04-14T04:30:09.468Z,98062.03
2023-04-14T04:32:39.851Z,98064.97
2023-04-14T04:35:08.821Z,98066.63
2023-04-14T04:37:37.677Z,98068.25
2023-04-14T04:40:05.048Z,98065.00
2023-04-14T04:42:32.082Z,98074.13
2023-04-14T04:44:58.875Z,98065.56
2023-04-14T04:47:25.933Z,98072.56
2023-04-14T04:49:52.717Z,98069.59
2023-04-14T04:52:19.436Z,98073.63
2023-04-14T04:54:52.046Z,98073.88
2023-04-14T04:57:19.763Z,98075.50
2023-04-14T04:59:47.585Z,98074.91
2023-04-14T05:02:14.341Z,98076.50
2023-04-14T05:04:41.163Z,98067.44
2023-04-14T05:07:08.804Z,98072.59
2023-04-14T05:09:35.588Z,98078.53
2023-04-14T05:12:02.417Z,98072.00
2023-04-14T05:14:29.206Z,98084.34
2023-04-14T05:16:57.081Z,98084.97
2023-04-14T05:19:23.923Z,98081.38
2023-04-14T05:21:51.048Z,98088.03
2023-04-14T05:24:17.828Z,98089.31
2023-04-14T05:27:01.830Z,98083.38
2023-04-14T05:29:32.501Z,98088.19
2023-04-14T05:31:59.388Z,98087.97
2023-04-14T05:34:26.135Z,98091.28
2023-04-14T05:36:53.004Z,98081.94
2023-04-14T05:39:19.942Z,98085.69
2023-04-14T05:41:46.739Z,98079.47
2023-04-14T05:44:13.532Z,98082.44
2023-04-14T05:46:41.222Z,98089.16
2023-04-14T05:49:08.256Z,98094.50
2023-04-14T05:51:36.116Z,98090.16
2023-04-14T05:54:03.114Z,98094.94
2023-04-14T05:56:30.132Z,98098.69
2023-04-14T05:58:56.903Z,98102.91
2023-04-14T06:01:23.670Z,98104.00
2023-04-14T06:03:50.690Z,98102.41
2023-04-14T06:06:19.687Z,98097.84
2023-04-14T06:08:46.493Z,98100.22
2023-04-14T06:11:14.223Z,98102.84
2023-04-14T06:13:41.235Z,98104.38
2023-04-14T06:16:11.076Z,98107.53
2023-04-14T06:18:37.860Z,98107.41
2023-04-14T06:21:04.764Z,98104.91
2023-04-14T06:23:32.286Z,98099.44
2023-04-14T06:25:59.277Z,98101.19
2023-04-14T06:28:28.510Z,98095.41
2023-04-14T06:30:55.396Z,98091.78
2023-04-14T06:33:22.224Z,98090.78
2023-04-14T06:35:48.957Z,98098.63
2023-04-14T06:38:17.084Z,98093.25
2023-04-14T06:40:44.396Z,98090.59
2023-04-14T06:43:11.464Z,98092.22
2023-04-14T06:45:38.382Z,98090.31
2023-04-14T06:48:06.202Z,98096.53
2023-04-14T06:50:32.964Z,98095.00
2023-04-14T06:52:59.752Z,98096.44
2023-04-14T06:55:26.675Z,98090.38
2023-04-14T06:57:53.513Z,98087.75
2023-04-14T07:00:20.747Z,98085.47
2023-04-14T07:02:47.637Z,98078.28
2023-04-14T07:05:14.965Z,98084.91
2023-04-14T07:07:41.921Z,98089.91
2023-04-14T07:10:09.618Z,98080.31
2023-04-14T07:12:36.437Z,98078.34
2023-04-14T07:15:03.672Z,98074.22
2023-04-14T07:17:30.500Z,98072.72
2023-04-14T07:19:58.125Z,98070.41
2023-04-14T07:22:24.898Z,98075.13
2023-04-14T07:24:51.847Z,98069.78
2023-04-14T07:27:18.590Z,98066.88
2023-04-14T07:29:45.414Z,98073.19
2023-04-14T07:32:13.480Z,98066.75
2023-04-14T07:34:43.848Z,98063.81
2023-04-14T07:37:11.133Z,98064.19
2023-04-14T07:39:38.335Z,98064.94
2023-04-14T07:42:05.466Z,98058.06
2023-04-14T07:44:33.193Z,98063.41
2023-04-14T07:47:00.141Z,98057.94
2023-04-14T07:49:26.944Z,98051.16
2023-04-14T07:51:53.783Z,98057.97
2023-04-14T07:54:20.614Z,98061.84
2023-04-14T07:56:48.641Z,98053.28
2023-04-14T07:59:16.084Z,98071.16
2023-04-14T08:01:42.939Z,98067.84
2023-04-14T08:04:09.900Z,98056.41
2023-04-14T08:06:37.203Z,98053.41
2023-04-14T08:09:04.110Z,98059.47
2023-04-14T08:11:33.704Z,98060.88
2023-04-14T08:14:00.813Z,98052.91
2023-04-14T08:16:27.750Z,98056.69
2023-04-14T08:18:55.798Z,98056.81
2023-04-14T08:21:24.866Z,98049.28
2023-04-14T08:23:52.471Z,98050.38
2023-04-14T08:26:19.296Z,98057.81
2023-04-14T08:28:46.950Z,98062.69
2023-04-14T08:31:13.690Z,98054.47
2023-04-14T08:33:40.474Z,98055.13
2023-04-14T08:36:07.521Z,98071.34
2023-04-14T08:38:34.261Z,98059.94
2023-04-14T08:41:04.182Z,98070.25
2023-04-14T08:43:30.989Z,98063.91
2023-04-14T08:46:00.579Z,98061.81
2023-04-14T08:48:31.077Z,98067.31
2023-04-14T08:51:32.214Z,98056.06
2023-04-14T08:54:01.453Z,98061.31
2023-04-14T08:56:34.393Z,98059.00
2023-04-14T08:59:02.000Z,98058.31
2023-04-14T09:01:30.369Z,98057.56
2023-04-14T09:03:57.919Z,98061.63
2023-04-14T09:06:25.674Z,98047.44
2023-04-14T09:08:53.174Z,98055.41
2023-04-14T09:11:20.081Z,98050.19
2023-04-14T09:13:50.191Z,98052.78
2023-04-14T09:16:18.756Z,98044.03
2023-04-14T09:18:47.292Z,98060.28
2023-04-14T09:21:50.435Z,98049.69
2023-04-14T09:24:05.456Z,98052.44
2023-04-14T09:26:32.279Z,98042.53
2023-04-14T09:29:00.473Z,98052.44
2023-04-14T09:31:28.528Z,98046.25
2023-04-14T09:33:55.549Z,98039.31
2023-04-14T09:36:24.752Z,98040.91
2023-04-14T09:38:52.659Z,98040.31
2023-04-14T09:41:22.955Z,98036.59
2023-04-14T09:43:50.843Z,98031.81
2023-04-14T09:46:18.050Z,98035.41
2023-04-14T09:48:56.657Z,98050.25
2023-04-14T09:51:29.456Z,98053.00
2023-04-14T09:54:06.421Z,98033.06
2023-04-14T09:56:33.651Z,98035.78
2023-04-14T09:59:02.456Z,98043.38
2023-04-14T10:01:34.417Z,98041.97
2023-04-14T10:04:03.027Z,98037.34
2023-04-14T10:06:32.090Z,98043.75
2023-04-14T10:08:59.712Z,98036.59
2023-04-14T10:11:37.992Z,98036.09
2023-04-14T10:14:06.691Z,98041.03
2023-04-14T10:16:34.557Z,98028.94
2023-04-14T10:19:02.756Z,98028.22
2023-04-14T10:21:30.212Z,98026.63
2023-04-14T10:23:57.772Z,98021.66
2023-04-14T10:26:26.380Z,98027.81
2023-04-14T10:28:56.155Z,98025.97
2023-04-14T10:31:37.661Z,98026.25
2023-04-14T10:34:13.658Z,98015.75
2023-04-14T10:36:41.395Z,98019.16
2023-04-14T10:39:10.888Z,98007.53
2023-04-14T10:41:55.661Z,98006.88
2023-04-14T10:44:41.492Z,98002.66
2023-04-14T10:47:08.879Z,97995.22
2023-04-14T10:49:41.374Z,97999.56
2023-04-14T10:52:14.511Z,97994.38
2023-04-14T10:54:57.205Z,97989.19
2023-04-14T10:57:26.713Z,97978.53
2023-04-14T11:00:00.567Z,97984.25
2023-04-14T11:02:33.259Z,97981.09
2023-04-14T11:05:06.462Z,97981.72
2023-04-14T11:07:44.614Z,97980.78
2023-04-14T11:10:17.891Z,97973.84
2023-04-14T11:12:46.411Z,97971.44
2023-04-14T11:15:14.488Z,97962.94
2023-04-14T11:17:43.211Z,97957.97
2023-04-14T11:20:22.383Z,97956.94
2023-04-14T11:22:52.527Z,97958.03
2023-04-14T11:25:23.925Z,97960.88
2023-04-14T11:27:52.259Z,97953.31
2023-04-14T11:30:21.647Z,97950.38
2023-04-14T11:32:51.541Z,97944.34
2023-04-14T11:35:20.683Z,97941.28
2023-04-14T11:37:47.835Z,97941.22
2023-04-14T11:40:17.031Z,97934.13
2023-04-14T11:42:52.400Z,97928.31
2023-04-14T11:45:19.448Z,97930.22
2023-04-14T11:48:06.168Z,97931.72
2023-04-14T11:50:47.435Z,97937.16
2023-04-14T11:53:19.010Z,97921.94
2023-04-14T11:55:49.254Z,97916.44
2023-04-14T11:58:26.790Z,97911.47
2023-04-14T12:00:56.292Z,97914.31
2023-04-14T12:03:32.399Z,97913.38
2023-04-14T12:06:01.698Z,97914.03
2023-04-14T12:08:34.063Z,97910.09
2023-04-14T12:11:14.985Z,97908.34
2023-04-14T12:13:47.038Z,97904.81
2023-04-14T12:16:16.945Z,97903.66
2023-04-14T12:18:44.674Z,97900.97
2023-04-14T12:21:18.839Z,97900.63
2023-04-14T12:23:50.647Z,97886.75
2023-04-14T12:26:19.494Z,97884.88
2023-04-14T12:28:55.856Z,97886.00
2023-04-14T12:31:29.635Z,97869.47
2023-04-14T12:34:01.857Z,97878.16
2023-04-14T12:36:45.477Z,97872.38
2023-04-14T12:39:16.384Z,97874.63
2023-04-14T12:41:43.445Z,97869.22
2023-04-14T12:44:21.384Z,97867.69
2023-04-14T12:46:53.722Z,97863.94
2023-04-14T12:49:33.799Z,97858.19
2023-04-14T12:52:01.211Z,97848.19
2023-04-14T12:54:47.498Z,97848.09
2023-04-14T12:57:14.533Z,97846.16
2023-04-14T12:59:41.301Z,97850.50
2023-04-14T13:02:09.089Z,97850.28
2023-04-14T13:04:35.982Z,97838.91
2023-04-14T13:07:03.509Z,97837.69
2023-04-14T13:09:31.721Z,97826.63
2023-04-14T13:11:58.550Z,97821.63
2023-04-14T13:14:25.332Z,97816.06
2023-04-14T13:16:53.980Z,97813.66
2023-04-14T13:19:23.109Z,97818.19
2023-04-14T13:21:50.870Z,97820.75
2023-04-14T13:24:17.775Z,97815.63
2023-04-14T13:26:46.081Z,97806.25
2023-04-14T13:29:15.821Z,97813.78
2023-04-14T13:31:42.641Z,97810.81
2023-04-14T13:34:11.184Z,97799.41
2023-04-14T13:36:38.114Z,97815.47
2023-04-14T13:39:05.044Z,97801.78
2023-04-14T13:41:32.639Z,97790.47
2023-04-14T13:43:59.514Z,97792.13
2023-04-14T13:46:26.318Z,97785.88
2023-04-14T13:48:53.876Z,97784.56
2023-04-14T13:51:23.409Z,97782.41
2023-04-14T13:53:50.450Z,97785.78
2023-04-14T13:56:22.652Z,97786.13
2023-04-14T13:58:49.600Z,97771.75
2023-04-14T14:01:16.561Z,97765.19
2023-04-14T14:03:43.981Z,97771.81
2023-04-14T14:06:11.068Z,97771.84
2023-04-14T14:08:38.027Z,97759.66
2023-04-14T14:11:06.379Z,97763.22
2023-04-14T14:13:36.004Z,97758.38
2023-04-14T14:16:04.174Z,97753.84
2023-04-14T14:18:30.991Z,97753.00
2023-04-14T14:20:57.804Z,97755.13
2023-04-14T14:23:26.195Z,97752.44
2023-04-14T14:25:54.515Z,97742.34
2023-04-14T14:28:22.737Z,97741.94
2023-04-14T14:30:50.060Z,97739.03
2023-04-14T14:33:17.253Z,97733.47
2023-04-14T14:35:44.529Z,97739.41
2023-04-14T14:38:11.651Z,97739.84
2023-04-14T14:40:39.132Z,97723.34
2023-04-14T14:43:06.421Z,97735.94
2023-04-14T14:45:33.872Z,97741.13
2023-04-14T14:48:01.509Z,97736.41
2023-04-14T14:50:28.433Z,97732.88
2023-04-14T14:52:56.794Z,97732.88
2023-04-14T14:55:23.786Z,97738.81
2023-04-14T14:57:51.193Z,97731.69
2023-04-14T15:00:18.856Z,97728.56
2023-04-14T15:02:45.943Z,97734.47
2023-04-14T15:05:14.322Z,97736.59
2023-04-14T15:07:41.122Z,97734.84
2023-04-14T15:10:09.202Z,97732.88
2023-04-14T15:12:36.086Z,97729.41
2023-04-14T15:15:03.213Z,97735.34
2023-04-14T15:17:31.336Z,97729.69
2023-04-14T15:20:03.395Z,97735.09
2023-04-14T15:22:31.424Z,97744.34
2023-04-14T15:24:58.680Z,97735.19
2023-04-14T15:27:25.552Z,97737.28
2023-04-14T15:29:52.382Z,97740.66
2023-04-14T15:32:24.995Z,97742.19
2023-04-14T15:34:52.992Z,97733.44
2023-04-14T15:37:20.023Z,97728.97
2023-04-14T15:39:46.914Z,97725.84
2023-04-14T15:42:13.885Z,97723.91
2023-04-14T15:44:40.778Z,97722.06
2023-04-14T15:47:07.643Z,97732.59
2023-04-14T15:49:34.484Z,97728.69
2023-04-14T15:52:02.660Z,97730.59
2023-04-14T15:54:29.450Z,97724.22
2023-04-14T15:56:56.195Z,97728.56
2023-04-14T15:59:24.809Z,97733.19
2023-04-14T16:01:53.456Z,97722.63
2023-04-14T16:04:20.513Z,97721.94
2023-04-14T16:06:47.866Z,97724.94
2023-04-14T16:09:15.175Z,97718.59
2023-04-14T16:11:42.021Z,97716.91
2023-04-14T16:14:09.029Z,97723.09
2023-04-14T16:16:36.311Z,97726.69
2023-04-14T16:19:03.480Z,97719.09
2023-04-14T16:21:30.517Z,97725.63
2023-04-14T16:23:57.419Z,97724.50
2023-04-14T16:26:25.103Z,97730.84
2023-04-14T16:28:52.555Z,97730.72
2023-04-14T16:31:19.381Z,97729.84
2023-04-14T16:33:46.800Z,97723.53
2023-04-14T16:36:13.575Z,97728.13
2023-04-14T16:38:40.791Z,97731.50
2023-04-14T16:41:07.642Z,97723.38
2023-04-14T16:43:34.419Z,97720.88
2023-04-14T16:46:05.743Z,97717.19
2023-04-14T16:48:33.163Z,97729.28
2023-04-14T16:51:10.865Z,97722.34
2023-04-14T16:53:39.083Z,97724.66
2023-04-14T16:56:11.198Z,97724.16
2023-04-14T16:58:38.798Z,97728.91
2023-04-14T17:01:07.126Z,97726.88
2023-04-14T17:03:34.806Z,97722.91
2023-04-14T17:06:01.925Z,97724.09
2023-04-14T17:08:28.957Z,97725.50
2023-04-14T17:10:56.653Z,97729.34
2023-04-14T17:13:23.502Z,97724.84
2023-04-14T17:15:58.822Z,97732.59
2023-04-14T17:18:35.063Z,97724.25
2023-04-14T17:21:02.023Z,97738.94
2023-04-14T17:23:29.091Z,97737.03
2023-04-14T17:25:58.690Z,97726.88
2023-04-14T17:28:27.141Z,97731.84
2023-04-14T17:30:54.120Z,97729.34
2023-04-14T17:33:22.093Z,97728.03
2023-04-14T17:35:48.997Z,97724.38
2023-04-14T17:38:16.628Z,97730.09
2023-04-14T17:40:43.411Z,97728.53
2023-04-14T17:43:10.136Z,97725.78
2023-04-14T17:45:43.713Z,97728.06
2023-04-14T17:48:11.017Z,97721.66
2023-04-14T17:50:37.910Z,97726.94
2023-04-14T17:53:05.017Z,97722.00
2023-04-14T17:55:32.484Z,97723.22
2023-04-14T17:58:00.200Z,97728.25
2023-04-14T18:00:29.194Z,97722.09
2023-04-14T18:02:57.527Z,97726.84
2023-04-14T18:05:24.358Z,97727.78
2023-04-14T18:07:51.402Z,97726.34
2023-04-14T18:10:18.262Z,97729.66
2023-04-14T18:12:45.072Z,97730.50
2023-04-14T18:15:15.760Z,97734.38
2023-04-14T18:17:43.563Z,97743.53
2023-04-14T18:20:11.510Z,97739.78
2023-04-14T18:22:39.146Z,97736.88
2023-04-14T18:25:06.820Z,97740.19
2023-04-14T18:30:03.789Z,97758.09
2023-04-14T18:32:31.417Z,97757.63
2023-04-14T18:34:58.448Z,97757.03
2023-04-14T18:37:26.222Z,97758.69
2023-04-14T18:39:53.075Z,97758.56
2023-04-14T18:42:20.187Z,97759.50
2023-04-14T18:44:47.520Z,97758.66
2023-04-14T18:47:15.784Z,97772.25
2023-04-14T18:49:42.596Z,97762.03
2023-04-14T18:52:09.472Z,97763.81
2023-04-14T18:54:36.203Z,97769.44
2023-04-14T18:57:03.211Z,97774.00
2023-04-14T18:59:29.942Z,97775.78
2023-04-14T19:01:58.293Z,97776.09
2023-04-14T19:04:25.779Z,97774.03
2023-04-14T19:06:55.242Z,97776.94
2023-04-14T19:09:23.244Z,97781.97
2023-04-14T19:11:50.359Z,97789.41
2023-04-14T19:14:18.401Z,97787.94
2023-04-14T19:16:45.351Z,97786.06
2023-04-14T19:19:12.412Z,97794.19
2023-04-14T19:21:39.311Z,97792.00
2023-04-14T19:24:06.195Z,97793.59
2023-04-14T19:26:34.437Z,97789.72
2023-04-14T19:29:02.594Z,97793.88
2023-04-14T19:31:29.601Z,97786.88
2023-04-14T19:33:58.521Z,97796.94
2023-04-14T19:36:25.441Z,97797.41
2023-04-14T19:38:52.707Z,97795.69
2023-04-14T19:41:19.665Z,97794.56
2023-04-14T19:43:46.863Z,97799.19
2023-04-14T19:46:13.834Z,97795.38
2023-04-14T19:48:41.242Z,97801.13
2023-04-14T19:51:09.025Z,97801.13
2023-04-14T19:53:36.452Z,97795.25
2023-04-14T19:56:05.463Z,97798.09
2023-04-14T19:58:32.754Z,97794.13
2023-04-14T20:01:01.000Z,97797.47
2023-04-14T20:03:28.250Z,97791.41
2023-04-14T20:05:57.728Z,97795.84
2023-04-14T20:08:27.190Z,97796.00
2023-04-14T20:10:54.825Z,97791.09
2023-04-14T20:13:24.341Z,97797.06
2023-04-14T20:15:54.312Z,97797.88
2023-04-14T20:18:22.898Z,97801.25
2023-04-14T20:20:50.034Z,97797.06
2023-04-14T20:23:16.954Z,97790.06
2023-04-14T20:25:45.488Z,97796.41
2023-04-14T20:28:12.395Z,97793.22
2023-04-14T20:30:39.504Z,97792.91
2023-04-14T20:33:06.255Z,97794.44
2023-04-14T20:35:39.254Z,97788.09
2023-04-14T20:38:07.483Z,97785.38
2023-04-14T20:40:34.994Z,97783.59
2023-04-14T20:43:01.816Z,97789.16
2023-04-14T20:45:28.766Z,97781.16
2023-04-14T20:47:55.681Z,97787.81
2023-04-14T20:50:22.665Z,97793.31
2023-04-14T20:52:51.079Z,97789.06
2023-04-14T20:55:19.455Z,97791.84
2023-04-14T20:57:47.885Z,97782.00
2023-04-14T21:00:16.801Z,97786.09
2023-04-14T21:02:45.259Z,97784.16
2023-04-14T21:05:12.645Z,97784.59
2023-04-14T21:07:43.696Z,97787.34
2023-04-14T21:10:12.590Z,97797.00
2023-04-14T21:12:54.218Z,97798.97
2023-04-14T21:15:49.990Z,97797.38
2023-04-14T21:18:14.008Z,97794.75
2023-04-14T21:20:41.132Z,97801.56
2023-04-14T21:23:07.906Z,97800.91
2023-04-14T21:25:35.492Z,97798.63
2023-04-14T21:28:02.305Z,97800.09
2023-04-14T21:30:29.112Z,97792.69
2023-04-14T21:32:56.011Z,97801.97
2023-04-14T21:35:22.833Z,97803.25
2023-04-14T21:37:49.641Z,97798.72
2023-04-14T21:40:16.427Z,97803.56
2023-04-14T21:42:43.341Z,97797.09
2023-04-14T21:45:10.693Z,97798.50
2023-04-14T21:47:38.052Z,97797.09
2023-04-14T21:50:07.206Z,97806.13
2023-04-14T21:52:34.079Z,97797.56
2023-04-14T21:55:01.277Z,97802.56
2023-04-14T21:57:44.545Z,97804.16
2023-04-14T22:00:17.387Z,97804.38
2023-04-14T22:02:45.357Z,97803.31
2023-04-14T22:05:13.618Z,97800.44
2023-04-14T22:07:41.116Z,97807.38
2023-04-14T22:10:08.472Z,97799.53
2023-04-14T22:12:39.667Z,97800.94
2023-04-14T22:15:08.982Z,97793.88
2023-04-14T22:17:41.220Z,97797.09
2023-04-14T22:20:09.596Z,97799.69
2023-04-14T22:22:36.724Z,97800.78
2023-04-14T22:25:04.467Z,97801.88
2023-04-14T22:27:33.810Z,97802.75
2023-04-14T22:30:01.915Z,97794.88
2023-04-14T22:32:29.119Z,97802.25
2023-04-14T22:34:55.876Z,97805.16
2023-04-14T22:37:22.779Z,97802.88
2023-04-14T22:39:49.520Z,97798.41
2023-04-14T22:42:16.503Z,97806.59
2023-04-14T22:44:43.389Z,97818.38
2023-04-14T22:47:10.252Z,97817.28
2023-04-14T22:49:37.035Z,97814.19
2023-04-14T22:52:04.906Z,97817.66
2023-04-14T22:54:31.798Z,97814.06
2023-04-14T22:56:58.770Z,97809.88
2023-04-14T22:59:26.789Z,97811.78
2023-04-14T23:01:53.791Z,97811.97
2023-04-14T23:04:20.882Z,97816.47
2023-04-14T23:06:47.731Z,97820.88
2023-04-14T23:09:15.217Z,97812.88
2023-04-14T23:11:42.523Z,97818.28
2023-04-14T23:14:09.371Z,97807.59
2023-04-14T23:16:36.532Z,97814.53
2023-04-14T23:19:03.608Z,97814.53
2023-04-14T23:21:30.627Z,97814.19
2023-04-14T23:23:57.454Z,97819.84
2023-04-14T23:26:25.570Z,97822.25
2023-04-14T23:28:53.674Z,97824.56
2023-04-14T23:31:20.991Z,97815.88
2023-04-14T23:33:50.843Z,97810.22
2023-04-14T23:36:18.604Z,97815.44
2023-04-14T23:38:45.623Z,97814.75
2023-04-14T23:41:12.445Z,97816.03
2023-04-14T23:43:39.538Z,97810.81
2023-04-14T23:46:06.381Z,97814.34
2023-04-14T23:48:33.210Z,97811.41
2023-04-14T23:51:06.207Z,97803.84
2023-04-14T23:53:45.928Z,97802.03
2023-04-14T23:56:12.960Z,97804.03
2023-04-14T23:58:39.762Z,97799.50
